Time;durP1;ratioP1;P1;durP2;ratioP2;P2;SDS_P1;SDS_P2;PMS_P1;PMS_P2;Temp;Humidity;BMP_temperature;BMP_pressure;BME280_temperature;BME280_humidity;BME280_pressure;Samples;Min_cycle;Max_cycle;Signal;HPM_P1;HPM_P2
2022/08/20 00:02:50;;;;;;;1.13;0.13;;;14.20;99.90;;;;;;20482555;29;20098;-52
2022/08/20 00:12:54;;;;;;;0.10;0.10;;;14.50;99.90;;;;;;20498170;28;20079;-63
2022/08/20 00:22:57;;;;;;;0.20;0.10;;;14.80;99.90;;;;;;20466578;29;20102;-62
2022/08/20 00:33:07;;;;;;;0.43;0.00;;;15.10;99.90;;;;;;20481448;29;20035;-50
2022/08/20 00:43:41;;;;;;;0.00;0.00;;;15.10;99.90;;;;;;20487739;29;20031;-52
2022/08/20 00:53:44;;;;;;;0.55;0.10;;;15.30;99.90;;;;;;20492905;29;20396;-51
2022/08/20 01:03:49;;;;;;;0.00;0.00;;;15.30;99.90;;;;;;20495932;29;20114;-62
2022/08/20 01:13:56;;;;;;;0.93;0.00;;;15.30;99.90;;;;;;20511001;28;20051;-50
2022/08/20 01:24:11;;;;;;;0.43;0.00;;;15.30;99.90;;;;;;20494217;29;20567;-62
2022/08/20 01:34:17;;;;;;;0.13;0.00;;;15.10;99.90;;;;;;20509904;29;20063;-61
2022/08/20 01:44:21;;;;;;;1.02;0.00;;;14.90;99.90;;;;;;20457483;29;20035;-50
2022/08/20 01:54:24;;;;;;;2.17;0.10;;;14.80;99.90;;;;;;20491213;29;20043;-49
2022/08/20 02:04:28;;;;;;;0.00;0.00;;;14.70;99.90;;;;;;20509134;29;20039;-49
2022/08/20 02:14:32;;;;;;;0.20;0.00;;;14.90;99.90;;;;;;20522603;28;20043;-51
2022/08/20 02:24:34;;;;;;;0.00;0.00;;;15.00;99.90;;;;;;20489412;29;20396;-62
2022/08/20 02:34:37;;;;;;;0.00;0.00;;;14.80;99.90;;;;;;20489257;29;20226;-62
2022/08/20 02:44:39;;;;;;;0.13;0.00;;;14.70;99.90;;;;;;20520552;28;20550;-50
2022/08/20 02:54:42;;;;;;;0.10;0.00;;;14.60;99.90;;;;;;20480919;29;20039;-60
2022/08/20 03:04:45;;;;;;;0.00;0.00;;;14.70;99.90;;;;;;20445878;29;20094;-49
2022/08/20 03:14:48;;;;;;;0.68;0.10;;;14.50;99.90;;;;;;20486299;28;20046;-52
2022/08/20 03:24:50;;;;;;;0.35;0.00;;;14.50;99.90;;;;;;20485160;29;20492;-51
2022/08/20 03:34:53;;;;;;;0.00;0.00;;;14.60;99.90;;;;;;20484814;29;20027;-55
2022/08/20 03:44:55;;;;;;;0.43;0.10;;;14.70;99.90;;;;;;20517246;28;20043;-53
2022/08/20 03:54:57;;;;;;;0.03;0.00;;;15.10;99.90;;;;;;20482970;29;20043;-52
2022/08/20 04:05:01;;;;;;;1.05;0.10;;;15.20;99.90;;;;;;20483259;29;20043;-61
2022/08/20 04:15:04;;;;;;;0.30;0.00;;;15.10;99.90;;;;;;20514013;28;20043;-62
2022/08/20 04:25:08;;;;;;;0.00;0.00;;;15.20;99.90;;;;;;20483029;29;20396;-62
2022/08/20 04:35:16;;;;;;;0.40;0.03;;;15.40;99.90;;;;;;20466992;29;20031;-50
2022/08/20 04:45:20;;;;;;;0.00;0.00;;;15.40;99.90;;;;;;20513552;28;20040;-62
2022/08/20 04:55:23;;;;;;;0.40;0.05;;;15.40;99.90;;;;;;20481003;29;20035;-61
2022/08/20 05:05:27;;;;;;;0.95;0.00;;;15.30;99.90;;;;;;20480996;29;20039;-50
2022/08/20 05:15:29;;;;;;;0.20;0.10;;;15.30;99.90;;;;;;20512008;28;20330;-62
2022/08/20 05:25:32;;;;;;;0.32;0.10;;;15.40;99.90;;;;;;20486167;28;20043;-51
2022/08/20 05:35:38;;;;;;;0.03;0.03;;;15.70;99.90;;;;;;20492958;29;20448;-51
2022/08/20 05:45:41;;;;;;;0.10;0.10;;;15.90;99.90;;;;;;20508790;29;20035;-48
2022/08/20 05:55:45;;;;;;;0.10;0.10;;;16.10;99.90;;;;;;20491595;29;20039;-50
2022/08/20 06:05:49;;;;;;;0.30;0.10;;;16.20;99.90;;;;;;20476061;29;20042;-52
2022/08/20 06:15:52;;;;;;;0.17;0.10;;;16.10;99.90;;;;;;20450851;29;20044;-61
2022/08/20 06:25:55;;;;;;;1.15;0.10;;;16.20;99.90;;;;;;20426931;29;20102;-62
2022/08/20 06:35:57;;;;;;;0.10;0.10;;;16.60;99.90;;;;;;20488901;28;20047;-61
2022/08/20 06:46:01;;;;;;;0.00;0.00;;;16.80;99.90;;;;;;20520330;28;20449;-49
2022/08/20 06:56:04;;;;;;;0.00;0.00;;;17.10;99.90;;;;;;20487456;29;20406;-63
2022/08/20 07:06:08;;;;;;;0.20;0.13;;;17.40;99.90;;;;;;20487334;29;20035;-51
2022/08/20 07:16:10;;;;;;;0.25;0.10;;;17.80;99.30;;;;;;20454668;28;20052;-63
2022/08/20 07:26:13;;;;;;;0.63;0.10;;;18.10;97.90;;;;;;20426753;28;20094;-62
2022/08/20 07:36:16;;;;;;;1.10;0.20;;;18.40;98.30;;;;;;20484115;29;20043;-65
2022/08/20 07:46:20;;;;;;;0.20;0.20;;;19.30;97.20;;;;;;20498343;28;20042;-52
2022/08/20 07:56:23;;;;;;;0.30;0.30;;;20.20;95.50;;;;;;20482323;29;20035;-52
2022/08/20 08:06:29;;;;;;;0.75;0.40;;;20.40;94.30;;;;;;20455842;28;20094;-50
2022/08/20 08:16:33;;;;;;;0.85;0.30;;;20.70;92.80;;;;;;20469419;29;20055;-53
2022/08/20 08:26:36;;;;;;;0.30;0.30;;;20.80;92.60;;;;;;20480956;29;20458;-51
2022/08/20 08:36:39;;;;;;;0.40;0.30;;;21.30;94.40;;;;;;20495658;29;20086;-50
2022/08/20 08:46:46;;;;;;;1.35;0.30;;;21.50;92.20;;;;;;20466155;28;20509;-66
2022/08/20 08:56:52;;;;;;;0.32;0.32;;;21.70;92.30;;;;;;20413744;28;20063;-52
2022/08/20 09:06:55;;;;;;;0.40;0.40;;;22.60;90.30;;;;;;20427702;28;20397;-52
2022/08/20 09:16:58;;;;;;;1.40;0.30;;;22.80;89.40;;;;;;20479222;29;20106;-54
2022/08/20 09:27:00;;;;;;;0.50;0.30;;;22.60;90.30;;;;;;20493375;29;20489;-51
2022/08/20 09:37:03;;;;;;;0.20;0.20;;;22.90;88.80;;;;;;20430387;28;20572;-54
2022/08/20 09:47:06;;;;;;;0.30;0.20;;;22.80;90.00;;;;;;20413399;29;20095;-53
2022/08/20 09:57:09;;;;;;;1.88;1.30;;;22.40;90.00;;;;;;20412001;29;20036;-52
2022/08/20 10:07:13;;;;;;;18.13;12.77;;;22.30;91.00;;;;;;20471430;28;20031;-51
2022/08/20 10:17:16;;;;;;;1.67;1.33;;;22.30;89.00;;;;;;20505123;29;20051;-53
2022/08/20 10:27:18;;;;;;;2.08;1.15;;;22.30;89.70;;;;;;20462476;28;20036;-66
2022/08/20 10:37:23;;;;;;;0.40;0.30;;;22.50;90.00;;;;;;20432643;29;20027;-67
2022/08/20 10:47:29;;;;;;;0.70;0.30;;;22.80;87.70;;;;;;20433425;28;20529;-51
2022/08/20 10:57:33;;;;;;;0.20;0.20;;;23.60;90.00;;;;;;20436059;29;20102;-51
2022/08/20 11:07:40;;;;;;;0.20;0.20;;;23.80;85.30;;;;;;20502103;29;20040;-67
2022/08/20 11:17:43;;;;;;;2.58;0.30;;;23.60;86.70;;;;;;20493514;29;20043;-50
2022/08/20 11:27:50;;;;;;;0.68;0.30;;;24.30;86.20;;;;;;20482956;29;20361;-54
2022/08/20 11:37:55;;;;;;;0.40;0.17;;;25.20;83.30;;;;;;20486673;28;20055;-53
2022/08/20 11:47:58;;;;;;;0.30;0.30;;;25.40;81.10;;;;;;20439307;28;20086;-49
2022/08/20 11:58:00;;;;;;;0.52;0.30;;;26.10;88.30;;;;;;20417138;28;20043;-52
2022/08/20 12:08:04;;;;;;;0.65;0.40;;;26.60;86.90;;;;;;20466620;29;20101;-68
2022/08/20 12:18:07;;;;;;;0.20;0.20;;;26.50;89.20;;;;;;20550093;28;20437;-64
2022/08/20 12:28:12;;;;;;;0.30;0.30;;;25.60;83.70;;;;;;20540958;28;20099;-53
2022/08/20 12:38:15;;;;;;;0.40;0.32;;;24.00;83.50;;;;;;20543344;28;20050;-53
2022/08/20 12:48:20;;;;;;;0.93;0.20;;;23.50;90.30;;;;;;20441800;28;20060;-55
2022/08/20 12:58:23;;;;;;;0.47;0.30;;;25.30;87.70;;;;;;20416842;29;20489;-53
2022/08/20 13:08:26;;;;;;;1.65;0.30;;;25.20;89.50;;;;;;20550636;28;20066;-51
2022/08/20 13:18:29;;;;;;;0.70;0.30;;;23.90;90.60;;;;;;20511968;28;20055;-52
2022/08/20 13:28:32;;;;;;;0.77;0.30;;;24.30;90.50;;;;;;20455959;29;20107;-53
2022/08/20 13:38:34;;;;;;;1.58;0.40;;;23.70;92.80;;;;;;20447360;29;20039;-53
2022/08/20 13:48:37;;;;;;;0.88;0.40;;;23.60;93.80;;;;;;20491613;28;20039;-55
2022/08/20 13:58:40;;;;;;;0.65;0.40;;;24.20;92.80;;;;;;20418904;29;20075;-55
2022/08/20 14:08:42;;;;;;;0.43;0.40;;;24.50;91.70;;;;;;20471627;29;20464;-53
2022/08/20 14:18:45;;;;;;;0.40;0.40;;;24.60;93.30;;;;;;20402518;29;20051;-53
2022/08/20 14:28:48;;;;;;;0.70;0.40;;;24.80;92.80;;;;;;20401758;29;20480;-54
2022/08/20 14:38:50;;;;;;;0.80;0.40;;;23.90;92.10;;;;;;20458609;29;20044;-54
2022/08/20 14:48:53;;;;;;;1.95;0.32;;;22.00;95.30;;;;;;20486351;29;20045;-51
2022/08/20 14:58:55;;;;;;;0.43;0.43;;;20.90;98.20;;;;;;20486081;28;20039;-64
2022/08/20 15:08:58;;;;;;;0.93;0.50;;;20.10;99.90;;;;;;20493447;29;20039;-51
2022/08/20 15:19:02;;;;;;;0.50;0.40;;;20.20;99.90;;;;;;20468204;29;20117;-64
2022/08/20 15:29:05;;;;;;;0.60;0.52;;;20.30;99.90;;;;;;20499768;29;20062;-53
2022/08/20 15:39:07;;;;;;;0.70;0.60;;;20.00;99.90;;;;;;20500647;29;20043;-53
2022/08/20 15:49:11;;;;;;;0.52;0.50;;;19.60;99.90;;;;;;20483530;29;20039;-55
2022/08/20 15:59:40;;;;;;;0.68;0.40;;;20.00;99.90;;;;;;20482915;29;20023;-54
2022/08/20 16:10:21;;;;;;;0.97;0.60;;;22.80;94.50;;;;;;20494862;28;20047;-64
2022/08/20 16:20:49;;;;;;;0.57;0.40;;;22.00;94.20;;;;;;20481147;29;20648;-64
2022/08/20 16:30:58;;;;;;;2.75;0.50;;;20.70;96.70;;;;;;20475567;29;20249;-63
2022/08/20 16:41:25;;;;;;;0.70;0.70;;;20.00;98.80;;;;;;20496041;29;20062;-52
2022/08/20 16:51:40;;;;;;;0.60;0.60;;;19.70;99.70;;;;;;20479995;29;20338;-64
2022/08/20 17:01:44;;;;;;;0.77;0.50;;;19.40;99.90;;;;;;20480155;29;20044;-64
2022/08/20 17:11:46;;;;;;;1.00;0.90;;;19.10;99.90;;;;;;20493986;29;20078;-51
2022/08/20 17:21:49;;;;;;;0.98;0.60;;;19.00;99.90;;;;;;20501890;28;20173;-64
2022/08/20 17:32:09;;;;;;;0.50;0.50;;;18.90;99.90;;;;;;20492434;29;20039;-61
2022/08/20 17:42:25;;;;;;;1.38;0.98;;;18.40;99.90;;;;;;20492836;29;20119;-62
2022/08/20 17:52:36;;;;;;;4.43;0.70;;;17.80;99.90;;;;;;20491957;29;20385;-63
2022/08/20 18:02:40;;;;;;;2.28;0.73;;;17.00;99.90;;;;;;20432662;29;20477;-50
2022/08/20 18:12:52;;;;;;;2.17;0.60;;;16.60;99.90;;;;;;20475481;29;20052;-53
2022/08/20 18:23:36;;;;;;;2.03;1.55;;;16.60;99.90;;;;;;20409795;29;20032;-53
2022/08/20 18:33:42;;;;;;;1.60;1.30;;;16.30;99.90;;;;;;20407692;29;20088;-48
2022/08/20 18:43:46;;;;;;;1.15;0.98;;;15.80;99.90;;;;;;20491371;29;20130;-49
2022/08/20 18:53:49;;;;;;;2.28;1.77;;;15.40;99.90;;;;;;20480778;29;20079;-50
2022/08/20 19:03:56;;;;;;;1.65;1.17;;;15.10;99.90;;;;;;20464687;29;20034;-51
2022/08/20 19:14:22;;;;;;;2.60;1.70;;;14.90;99.90;;;;;;20493358;28;20051;-54
2022/08/20 19:24:34;;;;;;;3.78;2.45;;;14.80;99.90;;;;;;20471566;29;20043;-51
2022/08/20 19:34:37;;;;;;;2.45;1.38;;;14.80;99.90;;;;;;20477622;29;20089;-53
2022/08/20 19:44:49;;;;;;;0.90;0.70;;;14.70;99.90;;;;;;20506938;28;20039;-62
2022/08/20 19:54:55;;;;;;;1.02;0.82;;;14.70;99.90;;;;;;20471692;29;20035;-50
2022/08/20 20:04:57;;;;;;;4.55;1.42;;;14.70;99.90;;;;;;20473906;29;20039;-53
2022/08/20 20:15:01;;;;;;;1.65;0.80;;;14.70;99.90;;;;;;20491018;28;20051;-57
2022/08/20 20:25:06;;;;;;;3.72;3.22;;;14.90;99.90;;;;;;20474167;29;20040;-54
2022/08/20 20:35:09;;;;;;;1.33;1.05;;;15.00;99.90;;;;;;20475652;29;20035;-63
2022/08/20 20:45:18;;;;;;;2.45;1.55;;;15.00;99.90;;;;;;20492176;29;20477;-51
2022/08/20 20:55:23;;;;;;;2.28;1.48;;;15.10;99.90;;;;;;20498084;28;20040;-63
2022/08/20 21:05:27;;;;;;;2.08;1.67;;;14.80;99.90;;;;;;20489998;28;20084;-63
2022/08/20 21:15:31;;;;;;;1.58;0.90;;;14.70;99.90;;;;;;20505375;29;20508;-52
2022/08/20 21:25:35;;;;;;;0.93;0.82;;;14.70;99.90;;;;;;20495255;29;20039;-54
2022/08/20 21:35:37;;;;;;;1.17;0.70;;;15.30;99.90;;;;;;20466210;28;20032;-64
2022/08/20 21:45:40;;;;;;;1.00;0.88;;;16.00;99.90;;;;;;20410981;29;20114;-54
2022/08/20 21:55:43;;;;;;;0.95;0.80;;;16.00;99.90;;;;;;20443123;29;20039;-49
2022/08/20 22:05:46;;;;;;;0.80;0.70;;;16.10;99.30;;;;;;20463654;28;20048;-53
2022/08/20 22:15:48;;;;;;;1.35;0.68;;;16.10;98.30;;;;;;20408635;29;20114;-63
2022/08/20 22:25:52;;;;;;;0.88;0.50;;;15.80;98.70;;;;;;20408740;29;20048;-48
2022/08/20 22:35:57;;;;;;;0.70;0.40;;;15.60;98.90;;;;;;20425189;28;20043;-63
2022/08/20 22:46:03;;;;;;;0.77;0.50;;;15.60;98.80;;;;;;20484853;29;20119;-64
2022/08/20 22:56:06;;;;;;;0.82;0.40;;;15.70;98.30;;;;;;20407961;29;20489;-64
2022/08/20 23:06:11;;;;;;;0.40;0.38;;;15.80;97.90;;;;;;20482357;29;20063;-64
2022/08/20 23:16:13;;;;;;;0.40;0.35;;;15.70;98.30;;;;;;20485207;28;20051;-64
2022/08/20 23:26:20;;;;;;;0.50;0.32;;;15.60;98.40;;;;;;20486028;29;20035;-63
2022/08/20 23:36:23;;;;;;;0.55;0.30;;;15.60;98.40;;;;;;20500366;29;20035;-64
2022/08/20 23:46:30;;;;;;;0.20;0.20;;;15.50;98.20;;;;;;20472991;28;20036;-64
2022/08/20 23:56:34;;;;;;;2.15;0.30;;;15.40;98.30;;;;;;20404088;29;20107;-64
